Time;durP1;ratioP1;P1;durP2;ratioP2;P2;SDS_P1;SDS_P2;PMS_P1;PMS_P2;Temp;Humidity;BMP_temperature;BMP_pressure;BME280_temperature;BME280_humidity;BME280_pressure;Samples;Min_cycle;Max_cycle;Signal;HPM_P1;HPM_P2
2022/06/23 00:01:49;;;;;;;22.38;15.82;;;589.50;2432.00;;;;;;5010654;28;20052;-79
2022/06/23 00:04:18;;;;;;;20.60;14.55;;;588.90;2432.00;;;;;;5007615;28;20447;-79
2022/06/23 00:06:44;;;;;;;17.58;14.40;;;;;;;;;;5007591;28;20025;-80
2022/06/23 00:09:39;;;;;;;16.85;13.63;;;563.70;2432.00;;;;;;5010702;28;20017;-79
2022/06/23 00:12:32;;;;;;;19.27;14.63;;;563.50;2432.00;;;;;;5004480;28;20025;-79
2022/06/23 00:15:01;;;;;;;20.40;14.23;;;563.30;2432.00;;;;;;5008430;28;20040;-79
2022/06/23 00:17:27;;;;;;;17.45;12.32;;;;;;;;;;5020730;28;20022;-78
2022/06/23 00:19:55;;;;;;;14.57;13.18;;;537.90;2406.40;;;;;;5019191;28;20075;-83
2022/06/23 00:22:24;;;;;;;29.35;15.35;;;512.70;2380.80;;;;;;5013044;28;20105;-80
2022/06/23 00:24:56;;;;;;;24.80;15.32;;;512.50;2380.80;;;;;;5001307;28;20030;-82
2022/06/23 00:27:29;;;;;;;22.23;15.30;;;512.10;2380.80;;;;;;4999968;28;20113;-78
2022/06/23 00:29:59;;;;;;;24.20;15.57;;;512.00;2380.80;;;;;;4998529;28;20057;-79
2022/06/23 00:32:26;;;;;;;22.85;18.02;;;512.10;2380.80;;;;;;4994256;28;20033;-81
2022/06/23 00:35:04;;;;;;;21.35;15.40;;;512.50;2380.80;;;;;;5015526;28;20040;-79
2022/06/23 00:37:30;;;;;;;18.52;14.85;;;512.50;2380.80;;;;;;5015481;28;20021;-79
2022/06/23 00:40:04;;;;;;;18.58;15.32;;;512.40;2380.80;;;;;;5017433;28;20132;-79
2022/06/23 00:42:33;;;;;;;17.65;14.68;;;512.40;2380.80;;;;;;5035224;28;20028;-80
2022/06/23 00:45:16;;;;;;;21.00;14.73;;;512.80;2380.80;;;;;;5017145;28;20029;-80
2022/06/23 00:47:53;;;;;;;18.45;14.98;;;512.60;2380.80;;;;;;5013190;28;20120;-80
2022/06/23 00:50:38;;;;;;;21.20;15.00;;;;;;;;;;5005839;28;20425;-78
2022/06/23 00:53:13;;;;;;;17.33;13.98;;;;;;;;;;5014941;28;20548;-79
2022/06/23 00:55:48;;;;;;;19.20;16.33;;;;;;;;;;5028580;28;20484;-79
2022/06/23 00:58:23;;;;;;;19.42;15.75;;;512.20;2380.80;;;;;;5001263;28;20032;-79
2022/06/23 01:00:53;;;;;;;19.13;15.57;;;512.00;2380.80;;;;;;5002534;28;20116;-78
2022/06/23 01:03:28;;;;;;;21.33;15.45;;;487.30;2380.80;;;;;;5003762;28;20025;-78
2022/06/23 01:06:09;;;;;;;22.75;16.05;;;512.00;2380.80;;;;;;5016454;28;20025;-79
2022/06/23 01:08:41;;;;;;;20.02;15.15;;;512.20;2380.80;;;;;;5013656;28;20025;-79
2022/06/23 01:11:11;;;;;;;20.90;15.35;;;512.10;2380.80;;;;;;5011627;28;20109;-74
2022/06/23 01:13:46;;;;;;;20.10;15.95;;;512.20;2380.80;;;;;;5016564;28;20037;-78
2022/06/23 01:16:22;;;;;;;17.30;14.98;;;512.20;2380.80;;;;;;5032713;28;20056;-79
2022/06/23 01:19:35;;;;;;;18.23;14.80;;;512.20;2380.80;;;;;;4997377;28;20377;-81
2022/06/23 01:22:07;;;;;;;16.63;14.85;;;512.30;2380.80;;;;;;4934535;29;20082;-81
2022/06/23 01:25:05;;;;;;;28.83;15.82;;;512.30;2380.80;;;;;;4932228;29;20028;-80
2022/06/23 01:28:01;;;;;;;17.70;15.98;;;512.10;2380.80;;;;;;5017411;28;20108;-81
2022/06/23 01:30:32;;;;;;;21.10;15.90;;;512.10;2380.80;;;;;;5014273;28;20025;-81
2022/06/23 01:33:22;;;;;;;23.23;15.18;;;512.10;2380.80;;;;;;5005803;28;20029;-81
2022/06/23 01:36:14;;;;;;;20.55;16.42;;;512.30;2380.80;;;;;;5019733;28;20064;-80
2022/06/23 01:39:01;;;;;;;24.38;15.52;;;512.20;2380.80;;;;;;5003576;28;20034;-80
2022/06/23 01:41:33;;;;;;;18.10;15.23;;;512.10;2380.80;;;;;;5016031;28;20025;-81
2022/06/23 01:44:14;;;;;;;23.25;16.05;;;487.30;2380.80;;;;;;5033546;28;20025;-82
2022/06/23 01:46:42;;;;;;;26.38;17.38;;;512.00;2380.80;;;;;;5013065;28;20029;-81
2022/06/23 01:49:27;;;;;;;22.15;16.40;;;;;;;;;;5005813;28;20056;-80
2022/06/23 01:51:54;;;;;;;19.52;16.02;;;;;;;;;;5016172;28;20023;-82
2022/06/23 01:54:23;;;;;;;20.48;17.23;;;;;;;;;;5016158;28;20033;-79
2022/06/23 01:56:58;;;;;;;22.48;16.52;;;;;;;;;;5015819;28;20029;-79
2022/06/23 01:59:43;;;;;;;34.28;19.10;;;;;;;;;;5015813;28;20028;-79
2022/06/23 02:02:15;;;;;;;20.65;17.33;;;;;;;;;;5029114;28;20014;-78
2022/06/23 02:05:00;;;;;;;20.73;17.33;;;;;;;;;;5007366;28;20034;-82
2022/06/23 02:07:33;;;;;;;16.85;15.00;;;;;;;;;;5015686;28;20108;-81
2022/06/23 02:10:01;;;;;;;21.45;16.48;;;;;;;;;;5015836;28;20021;-82
2022/06/23 02:12:30;;;;;;;20.92;15.77;;;;;;;;;;5012333;28;20459;-82
2022/06/23 02:15:05;;;;;;;17.50;15.55;;;;;;;;;;5007499;28;20076;-81
2022/06/23 02:17:47;;;;;;;20.15;14.82;;;;;;;;;;5015503;28;20499;-82
2022/06/23 02:20:22;;;;;;;23.92;16.15;;;;;;;;;;5003220;28;20472;-81
2022/06/23 02:22:49;;;;;;;20.85;16.30;;;;;;;;;;5002514;28;20021;-82
2022/06/23 02:25:23;;;;;;;23.10;16.88;;;;;;;;;;5015645;28;20022;-81
2022/06/23 02:27:53;;;;;;;24.23;14.60;;;;;;;;;;5015348;28;20076;-81
2022/06/23 02:30:20;;;;;;;19.83;15.93;;;;;;;;;;5008725;28;20030;-83
2022/06/23 02:33:05;;;;;;;19.25;16.75;;;;;;;;;;5003589;28;20037;-82
2022/06/23 02:35:34;;;;;;;21.70;17.33;;;;;;;;;;5014071;28;20045;-80
2022/06/23 02:38:20;;;;;;;23.10;17.13;;;;;;;;;;5015793;28;20028;-83
2022/06/23 02:40:48;;;;;;;19.95;17.13;;;;;;;;;;5015871;28;20476;-81
2022/06/23 02:43:20;;;;;;;17.95;14.88;;;;;;;;;;5015690;28;20970;-81
2022/06/23 02:45:58;;;;;;;18.77;15.88;;;;;;;;;;5001718;28;20050;-79
2022/06/23 02:48:35;;;;;;;22.80;15.70;;;;;;;;;;5015225;28;20076;-80
2022/06/23 02:51:07;;;;;;;20.00;15.35;;;;;;;;;;5015282;28;20026;-84
2022/06/23 02:53:39;;;;;;;20.40;13.93;;;;;;;;;;5014683;28;20037;-81
2022/06/23 02:56:17;;;;;;;16.00;12.85;;;;;;;;;;5015292;28;20043;-81
2022/06/23 02:58:47;;;;;;;28.02;16.27;;;;;;;;;;5015436;28;20053;-81
2022/06/23 03:01:20;;;;;;;20.10;16.27;;;;;;;;;;5015168;28;20021;-81
2022/06/23 03:03:51;;;;;;;19.63;14.05;;;;;;;;;;5015140;28;20075;-81
2022/06/23 03:06:43;;;;;;;23.88;14.65;;;;;;;;;;5011855;28;20080;-81
2022/06/23 03:09:09;;;;;;;25.45;14.85;;;;;;;;;;5008278;28;20053;-80
2022/06/23 03:11:54;;;;;;;18.83;14.48;;;;;;;;;;5014974;28;20026;-80
2022/06/23 03:14:20;;;;;;;21.73;15.18;;;;;;;;;;5015150;28;20029;-81
2022/06/23 03:16:49;;;;;;;28.63;14.85;;;;;;;;;;5009247;28;20088;-81
2022/06/23 03:19:18;;;;;;;25.98;17.13;;;;;;;;;;5024884;28;20037;-80
2022/06/23 03:21:52;;;;;;;19.88;14.18;;;538.10;2406.40;;;;;;5014505;28;20158;-80
2022/06/23 03:24:27;;;;;;;23.60;14.90;;;;;;;;;;5032319;28;20037;-80
2022/06/23 03:27:02;;;;;;;19.25;15.50;;;;;;;;;;5032307;28;20480;-80
2022/06/23 03:29:28;;;;;;;20.17;15.15;;;;;;;;;;5032325;28;20503;-80
2022/06/23 03:32:03;;;;;;;25.45;15.73;;;;;;;;;;5011473;28;20040;-79
2022/06/23 03:34:29;;;;;;;22.27;14.75;;;;;;;;;;5014374;28;20041;-79
2022/06/23 03:36:59;;;;;;;29.63;16.20;;;;;;;;;;5014582;28;20045;-79
2022/06/23 03:42:29;;;;;;;16.17;13.85;;;;;;;;;;5027510;28;20427;-79
2022/06/23 03:45:00;;;;;;;21.25;15.40;;;;;;;;;;5014305;28;20036;-79
2022/06/23 03:47:30;;;;;;;23.20;14.77;;;;;;;;;;5012727;28;20370;-80
2022/06/23 03:50:00;;;;;;;18.77;13.60;;;;;;;;;;5031650;28;20489;-80
2022/06/23 03:52:32;;;;;;;19.35;14.00;;;;;;;;;;5012975;28;20033;-80
2022/06/23 03:55:00;;;;;;;22.65;14.88;;;;;;;;;;5014145;28;20034;-79
2022/06/23 03:57:36;;;;;;;25.42;14.10;;;;;;;;;;5000133;28;20413;-79
2022/06/23 04:00:05;;;;;;;21.85;14.05;;;;;;;;;;5024463;28;20113;-80
2022/06/23 04:02:43;;;;;;;19.70;13.80;;;;;;;;;;5012754;28;20026;-81
2022/06/23 04:05:09;;;;;;;17.52;13.20;;;;;;;;;;5023822;28;20033;-79
2022/06/23 04:07:41;;;;;;;25.92;13.93;;;;;;;;;;5008896;28;20034;-80
2022/06/23 04:10:13;;;;;;;21.05;14.52;;;;;;;;;;5009123;28;20022;-81
2022/06/23 04:12:51;;;;;;;23.75;13.77;;;;;;;;;;5002384;28;20072;-80
2022/06/23 04:15:22;;;;;;;20.27;14.50;;;;;;;;;;5010422;28;20033;-80
2022/06/23 04:17:51;;;;;;;17.92;13.20;;;;;;;;;;5005444;28;20037;-81
2022/06/23 04:20:36;;;;;;;18.70;13.88;;;;;;;;;;5012105;28;20109;-81
2022/06/23 04:23:05;;;;;;;18.80;11.43;;;;;;;;;;5017894;28;20033;-78
2022/06/23 04:25:46;;;;;;;25.02;13.50;;;;;;;;;;5034015;28;20425;-79
2022/06/23 04:28:19;;;;;;;19.25;12.27;;;;;;;;;;5025364;28;20029;-77
2022/06/23 04:30:46;;;;;;;14.48;12.73;;;;;;;;;;5017557;28;20121;-77
2022/06/23 04:33:18;;;;;;;16.55;12.07;;;;;;;;;;5035420;28;20024;-77
2022/06/23 04:35:47;;;;;;;22.02;13.52;;;;;;;;;;5017411;28;20047;-77
2022/06/23 04:38:19;;;;;;;19.17;12.63;;;;;;;;;;5034859;28;20475;-77
2022/06/23 04:40:48;;;;;;;15.15;12.27;;;;;;;;;;5017454;28;20035;-79
2022/06/23 04:43:34;;;;;;;19.42;13.80;;;;;;;;;;5017215;28;20134;-78
2022/06/23 04:46:20;;;;;;;21.02;12.57;;;;;;;;;;5011659;28;20026;-87
2022/06/23 04:48:50;;;;;;;25.55;12.80;;;;;;;;;;5006337;28;20484;-89
2022/06/23 04:51:24;;;;;;;26.50;12.55;;;;;;;;;;5018975;28;20010;-89
2022/06/23 04:53:50;;;;;;;17.13;11.77;;;;;;;;;;5018947;28;20465;-83
2022/06/23 04:56:16;;;;;;;26.20;12.70;;;;;;;;;;5017440;28;20116;-82
2022/06/23 04:58:49;;;;;;;18.08;12.43;;;;;;;;;;5017325;28;20104;-81
2022/06/23 05:01:15;;;;;;;;;;;;;;;;;;5015370;28;20053;-82
2022/06/23 05:03:44;;;;;;;17.13;11.82;;;;;;;;;;5010148;28;20460;-82
2022/06/23 05:06:20;;;;;;;17.15;12.95;;;;;;;;;;5009299;28;20024;-81
2022/06/23 05:08:47;;;;;;;27.67;15.05;;;;;;;;;;5009083;28;20034;-82
2022/06/23 05:11:30;;;;;;;21.67;11.93;;;;;;;;;;5013876;28;20060;-88
2022/06/23 05:14:02;;;;;;;20.25;11.63;;;;;;;;;;5012202;28;20103;-89
2022/06/23 05:16:36;;;;;;;18.80;13.07;;;;;;;;;;5011158;28;20109;-89
2022/06/23 05:19:07;;;;;;;24.23;13.43;;;;;;;;;;5015895;28;20068;-89
2022/06/23 05:21:39;;;;;;;22.45;12.95;;;;;;;;;;5017042;28;20034;-90
2022/06/23 05:24:08;;;;;;;18.27;11.95;;;;;;;;;;5015507;28;20025;-90
2022/06/23 05:26:39;;;;;;;15.95;12.00;;;;;;;;;;5002233;28;20018;-86
2022/06/23 05:29:11;;;;;;;16.20;11.77;;;;;;;;;;5011857;28;20044;-88
2022/06/23 05:31:39;;;;;;;17.70;12.97;;;;;;;;;;5000850;28;20363;-86
2022/06/23 05:34:08;;;;;;;15.02;11.07;;;;;;;;;;5032934;28;20044;-88
2022/06/23 05:36:38;;;;;;;18.13;12.63;;;;;;;;;;5014822;28;20025;-88
2022/06/23 05:39:12;;;;;;;18.88;12.57;;;;;;;;;;5016012;28;20025;-88
2022/06/23 05:41:40;;;;;;;26.88;13.05;;;;;;;;;;5017459;28;20091;-88
2022/06/23 05:44:14;;;;;;;16.20;12.07;;;;;;;;;;5003473;28;20018;-87
2022/06/23 05:46:42;;;;;;;17.98;11.63;;;;;;;;;;5017429;28;20018;-87
2022/06/23 05:49:14;;;;;;;14.90;12.32;;;;;;;;;;5016971;28;20462;-86
2022/06/23 05:51:44;;;;;;;18.48;11.45;;;;;;;;;;5008292;28;20037;-88
2022/06/23 05:54:29;;;;;;;18.73;13.20;;;;;;;;;;5010852;28;20124;-85
2022/06/23 05:57:06;;;;;;;21.90;13.15;;;;;;;;;;4997971;28;20105;-87
2022/06/23 05:59:38;;;;;;;19.88;12.88;;;;;;;;;;5016708;28;20072;-88
2022/06/23 06:02:13;;;;;;;16.83;12.70;;;;;;;;;;5017080;28;20137;-87
2022/06/23 06:04:51;;;;;;;25.52;13.95;;;;;;;;;;5002886;28;20140;-82
2022/06/23 06:07:19;;;;;;;22.10;13.32;;;;;;;;;;5016275;28;20379;-86
2022/06/23 06:09:46;;;;;;;19.17;12.32;;;;;;;;;;5016309;28;20014;-86
2022/06/23 06:12:23;;;;;;;17.65;11.10;;;;;;;;;;5016420;28;20026;-83
2022/06/23 06:14:59;;;;;;;19.45;12.20;;;;;;;;;;5015784;28;20538;-82
2022/06/23 06:17:27;;;;;;;19.17;12.18;;;;;;;;;;5016092;28;20033;-82
2022/06/23 06:19:55;;;;;;;16.40;11.60;;;615.10;2304.00;;;;;;5015922;28;20041;-80
2022/06/23 06:22:53;;;;;;;23.08;12.40;;;615.00;2329.60;;;;;;5012594;28;20029;-83
2022/06/23 06:25:27;;;;;;;20.80;12.63;;;;;;;;;;5012874;28;20041;-82
2022/06/23 06:27:54;;;;;;;19.35;11.63;;;;;;;;;;5012247;28;20373;-81
2022/06/23 06:30:23;;;;;;;22.70;12.32;;;;;;;;;;5013602;28;20030;-86
2022/06/23 06:32:49;;;;;;;20.42;11.75;;;;;;;;;;5017936;28;20029;-89
2022/06/23 06:35:15;;;;;;;19.75;12.13;;;;;;;;;;5021884;28;20029;-89
2022/06/23 06:37:44;;;;;;;18.42;11.60;;;;;;;;;;5020182;28;20028;-91
2022/06/23 06:40:12;;;;;;;19.05;11.40;;;;;;;;;;5037557;28;20408;-90
2022/06/23 06:42:42;;;;;;;15.32;11.13;;;;;;;;;;4999388;28;20029;-90
2022/06/23 06:45:10;;;;;;;18.10;13.07;;;;;;;;;;5008622;28;20053;-88
2022/06/23 06:47:37;;;;;;;20.95;11.35;;;;;;;;;;5004687;28;20040;-88
2022/06/23 06:50:28;;;;;;;16.88;13.02;;;;;;;;;;5024257;28;20489;-89
2022/06/23 06:52:55;;;;;;;17.08;11.02;;;;;;;;;;4989865;28;20026;-90
2022/06/23 06:55:48;;;;;;;19.30;11.02;;;;;;;;;;5006983;28;20048;-90
2022/06/23 06:58:28;;;;;;;20.50;11.15;;;;;;;;;;5000843;28;20431;-86
2022/06/23 07:01:05;;;;;;;16.50;12.15;;;;;;;;;;5033495;28;20025;-82
2022/06/23 07:03:32;;;;;;;19.40;11.68;;;;;;;;;;5015398;28;20025;-82
2022/06/23 07:06:02;;;;;;;16.67;12.05;;;;;;;;;;5015092;28;20439;-81
2022/06/23 07:08:38;;;;;;;18.95;14.13;;;;;;;;;;5015158;28;20479;-82
2022/06/23 07:11:06;;;;;;;18.38;13.80;;;;;;;;;;5014850;28;20108;-82
2022/06/23 07:13:42;;;;;;;20.55;11.80;;;640.30;2150.40;;;;;;5008218;28;20017;-83
2022/06/23 07:16:15;;;;;;;18.25;11.02;;;640.10;2150.40;;;;;;5009301;28;20044;-84
2022/06/23 07:19:12;;;;;;;17.20;11.05;;;615.30;2176.00;;;;;;5002800;28;20487;-85
2022/06/23 07:21:51;;;;;;;19.63;11.05;;;615.20;2227.20;;;;;;5015060;28;20036;-86
2022/06/23 07:24:44;;;;;;;22.83;11.77;;;615.20;2227.20;;;;;;5014398;28;20025;-85
2022/06/23 07:27:19;;;;;;;;;;;615.30;2201.60;;;;;;5021857;28;20025;-86
2022/06/23 07:29:55;;;;;;;19.50;12.80;;;640.10;2201.60;;;;;;5003048;28;19912;-86
2022/06/23 07:32:27;;;;;;;15.23;11.85;;;;;;;;;;5013087;28;20410;-82
2022/06/23 07:35:16;;;;;;;15.82;12.60;;;;;;;;;;5014948;28;20033;-82
2022/06/23 07:37:47;;;;;;;22.75;16.08;;;666.00;2022.40;;;;;;4991361;28;20087;-82
2022/06/23 07:40:14;;;;;;;16.60;12.23;;;;;;;;;;5013346;28;20423;-85
2022/06/23 07:42:54;;;;;;;16.42;12.75;;;;;;;;;;5006558;28;20033;-85
2022/06/23 07:45:30;;;;;;;21.83;18.48;;;;;;;;;;5007369;28;20118;-87
2022/06/23 07:47:56;;;;;;;25.02;18.90;;;;;;;;;;5006909;28;20464;-85
2022/06/23 07:50:22;;;;;;;43.92;34.17;;;;;;;;;;5005023;28;20054;-84
2022/06/23 07:52:49;;;;;;;40.30;30.55;;;;;;;;;;5006348;28;20091;-86
2022/06/23 07:55:23;;;;;;;45.72;40.83;;;;;;;;;;5023615;28;20038;-85
2022/06/23 07:57:49;;;;;;;29.27;18.58;;;;;;;;;;5024387;28;20026;-87
2022/06/23 08:00:15;;;;;;;30.73;16.35;;;;;;;;;;5007424;28;20436;-85
2022/06/23 08:03:00;;;;;;;24.45;17.60;;;;;;;;;;5016466;28;20022;-86
2022/06/23 08:05:41;;;;;;;42.17;28.95;;;;;;;;;;5012779;28;20451;-84
2022/06/23 08:08:11;;;;;;;85.60;76.30;;;;;;;;;;5004975;28;20030;-86
2022/06/23 08:10:37;;;;;;;35.63;24.35;;;;;;;;;;5011689;28;20028;-83
2022/06/23 08:13:09;;;;;;;22.73;16.52;;;;;;;;;;5029101;28;20026;-82
2022/06/23 08:18:40;;;;;;;;;;;;;;;;;;4985470;28;20257;-83
2022/06/23 08:21:06;;;;;;;47.75;37.25;;;;;;;;;;5014494;28;19909;-80
2022/06/23 08:23:35;;;;;;;59.67;49.15;;;;;;;;;;5001284;28;20071;-79
2022/06/23 08:26:02;;;;;;;30.92;15.38;;;;;;;;;;5001632;28;20026;-82
2022/06/23 08:28:29;;;;;;;33.03;20.73;;;;;;;;;;5002355;28;20022;-87
2022/06/23 08:30:55;;;;;;;22.27;13.70;;;;;;;;;;5006010;28;20022;-79
2022/06/23 08:33:21;;;;;;;20.17;15.73;;;;;;;;;;5016454;28;20096;-82
2022/06/23 08:35:49;;;;;;;33.85;25.77;;;;;;;;;;5001920;28;20493;-82
2022/06/23 08:38:28;;;;;;;16.38;12.20;;;;;;;;;;5008565;28;20029;-84
2022/06/23 08:41:01;;;;;;;20.52;14.63;;;;;;;;;;5000536;28;20380;-84
2022/06/23 08:43:36;;;;;;;21.83;13.68;;;;;;;;;;5002840;28;20477;-84
2022/06/23 08:46:10;;;;;;;38.28;33.67;;;;;;;;;;5002726;28;20079;-85
2022/06/23 08:48:40;;;;;;;18.25;14.18;;;;;;;;;;5002576;28;20048;-84
2022/06/23 08:51:12;;;;;;;30.10;22.10;;;;;;;;;;5006386;28;20473;-83
2022/06/23 08:53:38;;;;;;;19.05;11.25;;;;;;;;;;5005098;28;20034;-83
2022/06/23 08:56:12;;;;;;;15.23;10.75;;;;;;;;;;5005372;28;20088;-83
2022/06/23 08:58:38;;;;;;;17.02;10.20;;;;;;;;;;5019148;28;20120;-84
2022/06/23 09:01:08;;;;;;;19.83;11.82;;;;;;;;;;5010869;28;20049;-82
2022/06/23 09:03:52;;;;;;;20.77;14.40;;;;;;;;;;5025305;28;20436;-84
2022/06/23 09:06:40;;;;;;;16.17;12.70;;;;;;;;;;5007791;28;20362;-88
2022/06/23 09:09:06;;;;;;;25.83;9.05;;;;;;;;;;5016389;28;20033;-88
2022/06/23 09:11:39;;;;;;;10.25;8.05;;;;;;;;;;5009760;28;20022;-88
2022/06/23 09:14:14;;;;;;;13.60;8.50;;;;;;;;;;5008113;28;20125;-85
2022/06/23 09:17:09;;;;;;;17.63;15.07;;;;;;;;;;5008463;28;20036;-85
2022/06/23 09:19:41;;;;;;;17.15;10.77;;;;;;;;;;4994163;28;20044;-83
2022/06/23 09:22:16;;;;;;;13.85;10.50;;;;;;;;;;5005732;28;20022;-87
2022/06/23 09:24:59;;;;;;;21.77;12.00;;;;;;;;;;5002373;28;20025;-84
2022/06/23 09:27:31;;;;;;;22.10;13.43;;;;;;;;;;5003287;28;20025;-86
2022/06/23 09:30:00;;;;;;;23.05;16.70;;;;;;;;;;5003060;28;20026;-84
2022/06/23 09:32:33;;;;;;;21.83;18.58;;;;;;;;;;5003276;28;20045;-85
2022/06/23 09:35:17;;;;;;;31.10;20.95;;;;;;;;;;5002580;28;20053;-83
2022/06/23 09:37:56;;;;;;;24.45;18.23;;;;;;;;;;5006740;28;20535;-83
2022/06/23 09:40:31;;;;;;;34.75;24.00;;;640.30;2406.40;;;;;;5010070;28;20058;-83
2022/06/23 09:43:22;;;;;;;40.30;32.33;;;615.00;2432.00;;;;;;5018960;28;20472;-82
2022/06/23 09:45:50;;;;;;;25.83;20.83;;;589.50;2432.00;;;;;;5003688;28;21569;-85
2022/06/23 09:48:37;;;;;;;35.30;27.75;;;614.70;2432.00;;;;;;5011388;28;20033;-81
2022/06/23 09:51:26;;;;;;;32.72;26.27;;;615.00;2432.00;;;;;;4997659;28;20034;-80
2022/06/23 09:54:23;;;;;;;29.77;26.23;;;615.20;2406.40;;;;;;5011523;28;20038;-78
2022/06/23 09:57:08;;;;;;;32.47;25.65;;;640.00;2406.40;;;;;;5022712;28;20033;-80
2022/06/23 09:59:54;;;;;;;36.47;28.73;;;640.20;2329.60;;;;;;5015797;28;20038;-79
2022/06/23 10:02:55;;;;;;;33.22;27.48;;;640.20;2355.20;;;;;;5002030;28;20484;-79
2022/06/23 10:05:43;;;;;;;48.67;40.83;;;640.20;2278.40;;;;;;5005792;28;20048;-81
2022/06/23 10:08:19;;;;;;;38.95;28.13;;;;;;;;;;5015604;28;20025;-86
2022/06/23 10:11:10;;;;;;;49.28;41.45;;;564.00;2432.00;;;;;;5017083;28;20025;-85
2022/06/23 10:14:09;;;;;;;40.20;35.92;;;564.10;2432.00;;;;;;5016157;28;20542;-82
2022/06/23 10:16:46;;;;;;;40.03;34.38;;;588.90;2432.00;;;;;;5016315;28;20025;-84
2022/06/23 10:19:27;;;;;;;38.17;31.35;;;588.90;2432.00;;;;;;5015993;28;20465;-83
2022/06/23 10:22:11;;;;;;;27.67;23.15;;;588.90;2432.00;;;;;;5000737;28;20029;-78
2022/06/23 10:24:58;;;;;;;34.67;31.05;;;588.80;2432.00;;;;;;5026385;28;20106;-84
2022/06/23 10:27:45;;;;;;;31.70;25.73;;;588.90;2432.00;;;;;;5005338;28;20053;-81
2022/06/23 10:30:29;;;;;;;42.55;25.35;;;588.80;2432.00;;;;;;5027755;28;20033;-81
2022/06/23 10:33:06;;;;;;;27.35;24.70;;;589.00;2432.00;;;;;;5011508;28;20061;-81
2022/06/23 10:35:59;;;;;;;27.13;21.10;;;589.00;2432.00;;;;;;5023723;28;20039;-81
2022/06/23 10:38:33;;;;;;;22.50;20.27;;;589.00;2432.00;;;;;;5018202;28;20029;-80
2022/06/23 10:41:17;;;;;;;19.30;17.23;;;589.10;2432.00;;;;;;5001618;28;20036;-79
2022/06/23 10:43:49;;;;;;;20.13;16.00;;;589.00;2432.00;;;;;;5001526;28;20053;-80
2022/06/23 10:46:24;;;;;;;22.38;19.95;;;589.00;2432.00;;;;;;5023809;28;20032;-80
2022/06/23 10:49:16;;;;;;;24.75;20.23;;;589.40;2432.00;;;;;;5026402;28;20488;-78
2022/06/23 10:52:01;;;;;;;24.33;19.07;;;589.60;2432.00;;;;;;5010804;28;20029;-78
2022/06/23 10:54:32;;;;;;;18.25;15.32;;;589.70;2432.00;;;;;;5022017;28;20033;-78
2022/06/23 10:57:01;;;;;;;27.35;21.55;;;;;;;;;;5008354;28;20026;-79
2022/06/23 10:59:30;;;;;;;34.25;25.27;;;614.70;2432.00;;;;;;5025790;28;20033;-79
2022/06/23 11:02:11;;;;;;;26.98;24.08;;;614.70;2432.00;;;;;;5002524;28;20030;-78
2022/06/23 11:05:07;;;;;;;31.13;27.85;;;614.90;2432.00;;;;;;5002559;28;20036;-81
2022/06/23 11:08:07;;;;;;;38.10;31.52;;;614.80;2432.00;;;;;;5025668;28;20072;-80
2022/06/23 11:11:00;;;;;;;33.88;30.33;;;614.90;2432.00;;;;;;5019915;28;20034;-79
2022/06/23 11:13:49;;;;;;;37.33;33.08;;;615.10;2380.80;;;;;;5003564;28;20117;-79
2022/06/23 11:16:46;;;;;;;34.67;31.00;;;640.00;2252.80;;;;;;5028017;28;20022;-78
2022/06/23 11:19:29;;;;;;;39.40;31.42;;;640.10;2252.80;;;;;;5000074;28;20105;-79
2022/06/23 11:22:09;;;;;;;42.80;35.05;;;640.00;2201.60;;;;;;5020720;28;20496;-79
2022/06/23 11:24:59;;;;;;;40.55;36.22;;;640.10;2124.80;;;;;;5014073;28;20029;-79
2022/06/23 11:27:44;;;;;;;31.10;26.42;;;;;;;;;;5014221;28;20075;-77
2022/06/23 11:30:22;;;;;;;26.00;22.90;;;;;;;;;;5031619;28;20510;-78
2022/06/23 11:33:17;;;;;;;26.63;22.95;;;640.20;2124.80;;;;;;5031950;28;20053;-78
2022/06/23 11:36:14;;;;;;;23.75;21.23;;;640.30;2124.80;;;;;;5013978;28;20033;-80
2022/06/23 11:38:47;;;;;;;20.52;16.77;;;;;;;;;;5014092;28;20366;-79
2022/06/23 11:41:15;;;;;;;27.60;22.10;;;640.20;2124.80;;;;;;5032130;28;20022;-78
2022/06/23 11:43:56;;;;;;;25.92;22.77;;;640.00;2150.40;;;;;;5031995;28;20025;-79
2022/06/23 11:46:49;;;;;;;23.70;21.20;;;615.20;2150.40;;;;;;5001653;28;20062;-79
2022/06/23 11:49:36;;;;;;;28.15;24.08;;;615.30;2150.40;;;;;;5031163;28;20472;-80
2022/06/23 11:52:19;;;;;;;32.95;29.52;;;640.40;2073.60;;;;;;5003978;28;20029;-78
2022/06/23 11:54:48;;;;;;;34.22;30.65;;;;;;;;;;5007241;28;20480;-79
2022/06/23 11:57:33;;;;;;;31.48;25.73;;;;;;;;;;5003612;28;20052;-79
2022/06/23 12:00:06;;;;;;;35.60;30.77;;;;;;;;;;5002880;28;20112;-78
2022/06/23 12:02:37;;;;;;;37.80;33.80;;;;;;;;;;5022619;28;20487;-79
2022/06/23 12:05:09;;;;;;;38.90;31.10;;;;;;;;;;5021606;28;20025;-77
2022/06/23 12:08:11;;;;;;;42.15;28.10;;;;;;;;;;5020840;28;20036;-77
2022/06/23 12:10:37;;;;;;;37.58;33.75;;;;;;;;;;4950423;29;20095;-80
2022/06/23 12:13:04;;;;;;;36.75;32.63;;;;;;;;;;5002375;28;20048;-79
2022/06/23 12:15:34;;;;;;;37.42;31.25;;;;;;;;;;5013010;28;20057;-78
2022/06/23 12:18:23;;;;;;;31.42;24.67;;;;;;;;;;5024769;28;20147;-77
2022/06/23 12:20:52;;;;;;;33.90;30.20;;;;;;;;;;5006517;28;20034;-77
2022/06/23 12:23:18;;;;;;;36.53;32.13;;;;;;;;;;5005399;28;20373;-78
2022/06/23 12:25:55;;;;;;;36.30;31.48;;;;;;;;;;5004922;28;20024;-78
2022/06/23 12:28:21;;;;;;;40.92;29.65;;;;;;;;;;5001663;28;20033;-77
2022/06/23 12:30:52;;;;;;;41.35;34.53;;;;;;;;;;5025153;28;20018;-78
2022/06/23 12:33:18;;;;;;;31.98;25.38;;;;;;;;;;5022864;28;20018;-81
2022/06/23 12:35:58;;;;;;;35.97;30.67;;;;;;;;;;5013409;28;20037;-88
2022/06/23 12:38:27;;;;;;;34.35;29.65;;;;;;;;;;5012995;28;20025;-87
2022/06/23 12:40:59;;;;;;;32.83;26.27;;;;;;;;;;5014996;28;20044;-89
2022/06/23 12:43:35;;;;;;;39.95;28.05;;;;;;;;;;5011771;28;20108;-86
2022/06/23 12:46:25;;;;;;;39.13;32.80;;;;;;;;;;5025956;28;20022;-83
2022/06/23 12:49:02;;;;;;;36.80;32.10;;;;;;;;;;5006893;28;20061;-85
2022/06/23 12:51:40;;;;;;;30.83;26.00;;;;;;;;;;5000764;28;20026;-83
2022/06/23 12:54:11;;;;;;;33.70;30.17;;;;;;;;;;5006226;28;20034;-83
2022/06/23 12:56:56;;;;;;;33.38;28.23;;;;;;;;;;5005525;28;20478;-83
2022/06/23 12:59:28;;;;;;;35.92;29.77;;;;;;;;;;5005003;28;20029;-83
2022/06/23 13:02:09;;;;;;;42.10;29.30;;;;;;;;;;5002873;28;20022;-80
2022/06/23 13:04:35;;;;;;;31.17;26.98;;;;;;;;;;5005491;28;20137;-79
2022/06/23 13:07:07;;;;;;;33.33;29.77;;;;;;;;;;5010122;28;20117;-80
2022/06/23 13:09:40;;;;;;;36.45;29.25;;;;;;;;;;5001164;28;20037;-80
2022/06/23 13:12:18;;;;;;;32.47;29.13;;;;;;;;;;5007401;28;20052;-80
2022/06/23 13:14:53;;;;;;;34.88;29.63;;;;;;;;;;5012964;28;20034;-84
2022/06/23 13:17:39;;;;;;;35.97;32.38;;;;;;;;;;5008299;28;20030;-88
2022/06/23 13:20:24;;;;;;;32.30;28.90;;;;;;;;;;5006464;28;20026;-88
2022/06/23 13:23:05;;;;;;;35.63;28.10;;;;;;;;;;5006026;28;20033;-84
2022/06/23 13:25:34;;;;;;;33.08;28.73;;;;;;;;;;5007921;28;20065;-85
2022/06/23 13:28:01;;;;;;;32.35;29.02;;;;;;;;;;5010949;28;20018;-83
2022/06/23 13:30:30;;;;;;;33.00;29.60;;;;;;;;;;5008990;28;20057;-87
2022/06/23 13:33:06;;;;;;;33.08;29.60;;;;;;;;;;5004674;28;20446;-86
2022/06/23 13:35:44;;;;;;;32.53;29.08;;;;;;;;;;4997184;28;20030;-85
2022/06/23 13:38:22;;;;;;;31.45;28.35;;;;;;;;;;5008767;28;20025;-84
2022/06/23 13:40:48;;;;;;;28.50;25.63;;;;;;;;;;5005336;28;20034;-86
2022/06/23 13:43:29;;;;;;;28.48;25.17;;;;;;;;;;5013622;28;20366;-81
2022/06/23 13:45:58;;;;;;;26.67;24.08;;;;;;;;;;5000869;28;20078;-87
2022/06/23 13:48:28;;;;;;;28.48;25.52;;;;;;;;;;5016486;28;20033;-88
2022/06/23 13:51:01;;;;;;;26.73;23.92;;;;;;;;;;5016844;28;20041;-82
2022/06/23 13:53:47;;;;;;;27.92;25.13;;;;;;;;;;5017026;28;20033;-87
2022/06/23 13:56:14;;;;;;;29.98;26.75;;;;;;;;;;4999374;28;20385;-87
2022/06/23 13:58:51;;;;;;;28.42;25.52;;;;;;;;;;5017038;28;20028;-88
2022/06/23 14:01:38;;;;;;;30.70;27.40;;;;;;;;;;5034255;28;20080;-88
2022/06/23 14:04:04;;;;;;;31.33;26.33;;;;;;;;;;5003431;28;20041;-88
2022/06/23 14:06:30;;;;;;;30.13;26.95;;;;;;;;;;5016706;28;20033;-84
2022/06/23 14:08:59;;;;;;;30.35;27.30;;;;;;;;;;5034196;28;20021;-87
2022/06/23 14:11:24;;;;;;;29.27;26.38;;;;;;;;;;5014775;28;20025;-87
2022/06/23 14:13:54;;;;;;;26.25;23.70;;;;;;;;;;5001004;28;20049;-86
2022/06/23 14:16:26;;;;;;;25.65;23.13;;;;;;;;;;5007909;28;20029;-88
2022/06/23 14:18:55;;;;;;;30.55;26.15;;;;;;;;;;5010823;28;20028;-89
2022/06/23 14:21:27;;;;;;;27.70;24.75;;;;;;;;;;5011649;28;20492;-89
2022/06/23 14:24:13;;;;;;;25.88;23.25;;;;;;;;;;5026011;28;20022;-88
2022/06/23 14:26:55;;;;;;;33.70;30.25;;;;;;;;;;5008918;28;20493;-87